Time;durP1;ratioP1;P1;durP2;ratioP2;P2;SDS_P1;SDS_P2;PMS_P1;PMS_P2;Temp;Humidity;BMP_temperature;BMP_pressure;BME280_temperature;BME280_humidity;BME280_pressure;Samples;Min_cycle;Max_cycle;Signal;HPM_P1;HPM_P2
2021/09/11 00:00:15;;;;;;;18.60;5.80;;;;;;;14.61;66.65;100295.39;111578;1203;22558;-58
2021/09/11 00:03:05;;;;;;;19.00;6.20;;;;;;;14.58;66.74;100296.05;111543;1203;22613;-59
2021/09/11 00:05:34;;;;;;;20.10;6.70;;;;;;;14.55;66.84;100295.52;111590;1203;24229;-60
2021/09/11 00:08:03;;;;;;;16.30;5.30;;;;;;;14.54;66.79;100297.36;111725;1204;22555;-58
2021/09/11 00:10:32;;;;;;;20.20;6.20;;;;;;;14.53;67.05;100297.97;111564;1203;22440;-58
2021/09/11 00:13:01;;;;;;;15.80;5.50;;;;;;;14.51;67.13;100300.35;111729;1204;22484;-57
2021/09/11 00:15:32;;;;;;;14.30;4.50;;;;;;;14.46;67.27;100299.48;111567;1203;24534;-58
2021/09/11 00:18:01;;;;;;;13.30;4.90;;;;;;;14.39;67.24;100299.18;111679;1204;25206;-57
2021/09/11 00:20:30;;;;;;;16.10;4.80;;;;;;;14.35;67.27;100297.89;111715;1204;22603;-58
2021/09/11 00:23:01;;;;;;;18.20;5.40;;;;;;;14.30;67.35;100294.55;111623;1204;22589;-59
2021/09/11 00:25:30;;;;;;;14.40;4.50;;;;;;;14.24;67.38;100292.03;111671;1203;22455;-56
2021/09/11 00:27:58;;;;;;;16.40;5.10;;;;;;;14.19;67.46;100291.23;111603;1203;24891;-58
2021/09/11 00:30:27;;;;;;;16.20;5.60;;;;;;;14.15;67.58;100294.48;111684;1204;24172;-58
2021/09/11 00:32:55;;;;;;;13.20;4.80;;;;;;;14.11;67.78;100298.95;111679;1204;22467;-59
2021/09/11 00:35:23;;;;;;;18.80;5.30;;;;;;;14.10;67.93;100298.64;111875;1204;22569;-60
2021/09/11 00:37:52;;;;;;;17.60;5.40;;;;;;;14.07;68.06;100295.83;111578;1203;25096;-59
2021/09/11 00:40:20;;;;;;;12.80;4.20;;;;;;;14.05;68.21;100298.56;111564;1203;25093;-58
2021/09/11 00:42:48;;;;;;;13.30;4.70;;;;;;;14.01;68.38;100292.02;111944;1203;24066;-59
2021/09/11 00:45:17;;;;;;;15.00;5.10;;;;;;;13.97;68.30;100294.94;112006;1203;25357;-60
2021/09/11 00:47:46;;;;;;;15.50;5.00;;;;;;;13.92;68.23;100296.09;111899;1204;25223;-58
2021/09/11 00:50:15;;;;;;;13.40;4.70;;;;;;;13.89;68.31;100293.78;111619;1203;22452;-59
2021/09/11 00:53:05;;;;;;;15.40;4.70;;;;;;;13.87;68.44;100296.00;111578;1203;24217;-59
2021/09/11 00:55:34;;;;;;;12.60;4.80;;;;;;;13.86;68.67;100293.04;111641;1204;24116;-59
2021/09/11 00:58:02;;;;;;;17.60;6.10;;;;;;;13.84;68.72;100293.85;111543;1204;22469;-58
2021/09/11 01:00:31;;;;;;;16.20;5.70;;;;;;;13.83;68.91;100291.39;111548;1203;25107;-59
2021/09/11 01:02:59;;;;;;;16.60;6.40;;;;;;;13.79;68.94;100291.58;111596;1203;22547;-59
2021/09/11 01:05:28;;;;;;;18.20;5.60;;;;;;;13.77;69.11;100290.63;111558;1203;25171;-57
2021/09/11 01:07:56;;;;;;;15.30;5.80;;;;;;;13.73;69.26;100291.94;111906;1204;22465;-59
2021/09/11 01:10:24;;;;;;;17.10;5.70;;;;;;;13.70;69.36;100292.11;111772;1203;22455;-59
2021/09/11 01:12:53;;;;;;;13.20;5.70;;;;;;;13.67;69.33;100289.64;111725;1204;22440;-58
2021/09/11 01:15:33;;;;;;;17.90;6.10;;;;;;;13.65;69.41;100284.98;111674;1204;25164;-58
2021/09/11 01:18:03;;;;;;;19.10;7.50;;;;;;;13.62;69.62;100286.91;111802;1207;24115;-59
2021/09/11 01:20:32;;;;;;;13.80;5.80;;;;;;;13.60;69.81;100290.05;112026;1205;22464;-59
2021/09/11 01:23:00;;;;;;;18.50;6.50;;;;;;;13.59;70.02;100294.13;111849;1203;25073;-58
2021/09/11 01:25:28;;;;;;;18.90;5.60;;;;;;;13.59;69.74;100291.58;111968;1204;22439;-58
2021/09/11 01:27:57;;;;;;;19.60;6.30;;;;;;;13.58;69.79;100287.69;112161;1204;22474;-60
2021/09/11 01:30:25;;;;;;;17.80;6.70;;;;;;;13.56;69.79;100286.35;111990;1204;22428;-59
2021/09/11 01:32:53;;;;;;;18.00;6.10;;;;;;;13.55;69.95;100283.48;112465;1204;25095;-58
2021/09/11 01:35:21;;;;;;;15.80;6.00;;;;;;;13.53;69.82;100284.34;112433;1204;22435;-59
2021/09/11 01:37:49;;;;;;;16.10;5.90;;;;;;;13.50;70.12;100283.35;112493;1203;24067;-59
2021/09/11 01:40:18;;;;;;;18.70;7.20;;;;;;;13.46;70.32;100283.08;112395;1205;22491;-59
2021/09/11 01:42:47;;;;;;;16.70;7.00;;;;;;;13.44;70.53;100281.31;112420;1208;24109;-59
2021/09/11 01:45:17;;;;;;;16.30;6.40;;;;;;;13.41;70.46;100284.29;112484;1203;24679;-57
2021/09/11 01:47:48;;;;;;;18.50;6.80;;;;;;;13.39;70.68;100281.06;112559;1203;24046;-59
2021/09/11 01:50:18;;;;;;;17.60;7.10;;;;;;;13.37;70.49;100282.77;112354;1204;22748;-58
2021/09/11 01:52:48;;;;;;;17.40;6.70;;;;;;;13.35;70.50;100280.42;112572;1203;22659;-58
2021/09/11 01:55:18;;;;;;;16.80;6.70;;;;;;;13.32;70.51;100283.97;112520;1204;22445;-57
2021/09/11 01:57:47;;;;;;;19.70;7.40;;;;;;;13.30;70.75;100282.52;112625;1204;22557;-60
2021/09/11 02:00:18;;;;;;;16.70;7.40;;;;;;;13.29;70.88;100281.64;112488;1205;24104;-58
2021/09/11 02:02:47;;;;;;;18.10;6.60;;;;;;;13.27;70.78;100284.58;112500;1209;25258;-58
2021/09/11 02:05:16;;;;;;;19.70;7.50;;;;;;;13.23;70.88;100286.17;112503;1203;25243;-57
2021/09/11 02:07:48;;;;;;;19.00;7.10;;;;;;;13.21;71.17;100287.27;112448;1205;22598;-57
2021/09/11 02:10:27;;;;;;;19.60;7.20;;;;;;;13.19;71.18;100289.30;112646;1204;22503;-56
2021/09/11 02:12:55;;;;;;;18.30;6.50;;;;;;;13.19;71.23;100289.45;112544;1207;24150;-57
2021/09/11 02:15:23;;;;;;;20.60;7.60;;;;;;;13.17;71.19;100286.90;112535;1205;22375;-57
2021/09/11 02:17:51;;;;;;;16.50;7.00;;;;;;;13.15;71.20;100290.23;112493;1204;24158;-55
2021/09/11 02:20:29;;;;;;;;;;;;;;;;;;;;;
2021/09/11 02:22:57;;;;;;;22.10;7.40;;;;;;;13.10;71.68;100287.54;112320;1205;22726;-55
2021/09/11 02:25:26;;;;;;;19.20;6.90;;;;;;;13.08;71.68;100284.56;112473;1205;23014;-58
2021/09/11 02:27:54;;;;;;;16.40;6.60;;;;;;;13.07;71.81;100283.36;112404;1204;22450;-57
2021/09/11 02:30:23;;;;;;;20.30;7.10;;;;;;;13.05;71.64;100281.78;112348;1204;22400;-59
2021/09/11 02:32:52;;;;;;;17.50;7.30;;;;;;;13.04;71.83;100281.10;112545;1203;25121;-59
2021/09/11 02:35:21;;;;;;;17.10;7.20;;;;;;;13.04;71.98;100275.44;112638;1207;24887;-58
2021/09/11 02:37:49;;;;;;;19.60;7.70;;;;;;;13.03;72.14;100275.81;112478;1205;22469;-59
2021/09/11 02:40:19;;;;;;;17.70;7.20;;;;;;;13.01;72.22;100280.68;112507;1204;22568;-59
2021/09/11 02:42:50;;;;;;;16.80;7.60;;;;;;;13.00;72.33;100281.19;112431;1203;22547;-59
2021/09/11 02:45:18;;;;;;;19.20;7.10;;;;;;;12.98;72.39;100279.76;112444;1205;24069;-59
2021/09/11 02:47:46;;;;;;;16.90;7.40;;;;;;;12.97;72.57;100285.05;112319;1204;25157;-59
2021/09/11 02:50:14;;;;;;;15.00;6.10;;;;;;;12.95;72.65;100281.91;112523;1204;25325;-56
2021/09/11 02:52:42;;;;;;;15.30;5.90;;;;;;;12.92;72.53;100281.11;112675;1205;22372;-59
2021/09/11 02:55:12;;;;;;;19.30;6.80;;;;;;;12.90;72.54;100282.52;112298;1204;26317;-57
2021/09/11 02:57:40;;;;;;;17.70;6.70;;;;;;;12.88;72.60;100282.81;112520;1205;22492;-58
2021/09/11 03:00:10;;;;;;;17.00;7.30;;;;;;;12.85;72.67;100282.02;112534;1205;22467;-61
2021/09/11 03:02:40;;;;;;;16.80;6.70;;;;;;;12.84;72.70;100283.23;112504;1203;22404;-58
2021/09/11 03:05:10;;;;;;;14.10;6.50;;;;;;;12.83;72.82;100283.71;112412;1208;22456;-57
2021/09/11 03:07:38;;;;;;;19.30;6.70;;;;;;;12.83;72.97;100282.40;112621;1204;22500;-58
2021/09/11 03:10:09;;;;;;;15.90;6.30;;;;;;;12.81;73.16;100284.77;112601;1205;22399;-58
2021/09/11 03:12:38;;;;;;;18.00;6.30;;;;;;;12.79;73.17;100283.52;112792;1205;23276;-58
2021/09/11 03:15:09;;;;;;;16.00;6.20;;;;;;;12.78;73.15;100280.46;112404;1204;23152;-60
2021/09/11 03:17:37;;;;;;;17.20;6.40;;;;;;;12.78;73.07;100282.95;112566;1205;22451;-58
2021/09/11 03:20:08;;;;;;;17.00;7.10;;;;;;;12.76;73.17;100277.38;112696;1204;22463;-60
2021/09/11 03:22:36;;;;;;;14.80;6.40;;;;;;;12.75;73.23;100279.15;112695;1203;22614;-58
2021/09/11 03:25:06;;;;;;;16.40;7.20;;;;;;;12.73;73.35;100278.63;112548;1205;22505;-59
2021/09/11 03:27:34;;;;;;;18.40;7.20;;;;;;;12.72;73.36;100278.05;112500;1205;22437;-60
2021/09/11 03:30:03;;;;;;;18.80;7.00;;;;;;;12.70;73.43;100276.00;112481;1205;25080;-59
2021/09/11 03:32:31;;;;;;;19.10;7.30;;;;;;;12.69;73.47;100273.70;112549;1205;24173;-58
2021/09/11 03:34:59;;;;;;;18.80;7.40;;;;;;;12.69;73.60;100273.33;112508;1206;22587;-58
2021/09/11 03:37:28;;;;;;;15.70;6.30;;;;;;;12.67;73.66;100277.03;112503;1206;22371;-57
2021/09/11 03:39:56;;;;;;;19.00;6.70;;;;;;;12.66;73.86;100277.98;112598;1205;22450;-58
2021/09/11 03:42:24;;;;;;;15.40;6.10;;;;;;;12.65;73.88;100273.34;112443;1205;22469;-58
2021/09/11 03:44:52;;;;;;;19.20;6.60;;;;;;;12.65;73.83;100272.06;112525;1208;22484;-58
2021/09/11 03:47:22;;;;;;;15.00;6.10;;;;;;;12.65;73.69;100269.72;112463;1204;22451;-57
2021/09/11 03:49:50;;;;;;;14.70;6.30;;;;;;;12.63;73.70;100270.57;112685;1205;22705;-59
2021/09/11 03:52:20;;;;;;;18.40;6.80;;;;;;;12.61;73.79;100272.23;113768;1208;22781;-60
2021/09/11 03:54:48;;;;;;;15.60;6.30;;;;;;;12.59;74.06;100272.10;113002;1205;24710;-57
2021/09/11 03:57:16;;;;;;;17.50;6.70;;;;;;;12.58;74.01;100275.14;112494;1206;23596;-56
2021/09/11 03:59:44;;;;;;;16.20;6.70;;;;;;;12.57;73.93;100272.55;112504;1205;25103;-57
2021/09/11 04:02:12;;;;;;;18.00;5.90;;;;;;;12.57;73.89;100276.87;112452;1209;22940;-58
2021/09/11 04:04:41;;;;;;;17.70;6.40;;;;;;;12.56;73.88;100274.11;112436;1205;22741;-58
2021/09/11 04:07:09;;;;;;;14.30;6.10;;;;;;;12.55;73.79;100270.13;112541;1205;22439;-59
2021/09/11 04:09:37;;;;;;;15.30;7.00;;;;;;;12.52;73.95;100279.81;112559;1203;25218;-60
2021/09/11 04:12:08;;;;;;;16.90;6.30;;;;;;;12.50;74.21;100282.33;112630;1204;22479;-59
2021/09/11 04:14:36;;;;;;;21.50;7.30;;;;;;;12.47;74.09;100285.24;112660;1206;22457;-58
2021/09/11 04:17:05;;;;;;;17.80;7.50;;;;;;;12.47;74.23;100285.25;112595;1204;22456;-58
2021/09/11 04:19:33;;;;;;;18.60;6.20;;;;;;;12.44;74.07;100288.36;112517;1209;22481;-58
2021/09/11 04:22:01;;;;;;;15.90;6.60;;;;;;;12.40;74.13;100288.63;112445;1205;23160;-58
2021/09/11 04:24:29;;;;;;;20.00;6.90;;;;;;;12.36;74.24;100284.55;112437;1205;22468;-59
2021/09/11 04:26:58;;;;;;;16.10;7.00;;;;;;;12.34;74.20;100285.86;112597;1208;22558;-60
2021/09/11 04:29:26;;;;;;;19.20;7.20;;;;;;;12.31;74.25;100286.11;112545;1205;24163;-58
2021/09/11 04:31:54;;;;;;;17.70;6.30;;;;;;;12.29;74.44;100285.17;112500;1206;25738;-58
2021/09/11 04:34:23;;;;;;;16.90;6.60;;;;;;;12.28;74.41;100285.11;112451;1204;22986;-58
2021/09/11 04:36:51;;;;;;;15.80;6.10;;;;;;;12.26;74.64;100287.69;112595;1208;23030;-58
2021/09/11 04:39:39;;;;;;;17.00;6.50;;;;;;;12.24;74.71;100291.48;112607;1204;24040;-59
2021/09/11 04:42:07;;;;;;;18.70;6.70;;;;;;;12.24;74.81;100290.96;112504;1204;24551;-57
2021/09/11 04:44:35;;;;;;;15.90;6.20;;;;;;;12.23;74.88;100290.20;112608;1206;22505;-58
2021/09/11 04:47:05;;;;;;;14.40;5.70;;;;;;;12.24;74.77;100291.92;112531;1205;25233;-58
2021/09/11 04:49:34;;;;;;;17.70;6.50;;;;;;;12.22;74.79;100289.83;112613;1209;22465;-61
2021/09/11 04:52:02;;;;;;;16.20;6.90;;;;;;;12.22;74.86;100295.06;112591;1205;22437;-58
2021/09/11 04:54:30;;;;;;;17.70;6.90;;;;;;;12.21;75.04;100292.61;112576;1205;24661;-58
2021/09/11 04:56:58;;;;;;;17.10;6.40;;;;;;;12.21;75.14;100291.40;112450;1205;22590;-59
2021/09/11 04:59:26;;;;;;;14.80;6.50;;;;;;;12.22;75.34;100289.00;112493;1205;23795;-59
2021/09/11 05:01:56;;;;;;;19.70;6.80;;;;;;;12.23;75.34;100291.83;112428;1205;24268;-58
2021/09/11 05:04:25;;;;;;;17.00;6.30;;;;;;;12.25;75.45;100292.25;112332;1205;25151;-58
2021/09/11 05:06:53;;;;;;;16.20;6.50;;;;;;;12.27;75.51;100292.84;112375;1205;25230;-59
2021/09/11 05:09:23;;;;;;;14.80;6.30;;;;;;;12.30;75.42;100293.23;112367;1205;22763;-63
2021/09/11 05:11:52;;;;;;;;;;;;;;;12.34;75.64;100296.85;112670;1207;22476;-58
2021/09/11 05:14:20;;;;;;;15.60;6.30;;;;;;;12.36;75.89;100294.22;112455;1205;22436;-60
2021/09/11 05:16:49;;;;;;;17.70;6.80;;;;;;;12.40;75.68;100296.77;112423;1204;22595;-60
2021/09/11 05:19:17;;;;;;;16.80;6.40;;;;;;;12.45;75.46;100297.90;112367;1204;22558;-58
2021/09/11 05:21:45;;;;;;;17.20;6.90;;;;;;;12.51;75.77;100297.33;112379;1205;25146;-58
2021/09/11 05:24:15;;;;;;;19.10;6.70;;;;;;;12.56;75.57;100293.56;112568;1205;23635;-58
2021/09/11 05:26:44;;;;;;;20.60;7.20;;;;;;;12.62;75.71;100295.00;112541;1201;25099;-58
2021/09/11 05:29:13;;;;;;;18.60;7.00;;;;;;;12.66;75.59;100295.81;112481;1208;22459;-59
2021/09/11 05:31:41;;;;;;;18.70;7.10;;;;;;;12.73;75.66;100299.97;112644;1204;25097;-59
2021/09/11 05:34:09;;;;;;;18.40;6.70;;;;;;;12.79;75.78;100299.62;112401;1204;25377;-58
2021/09/11 05:36:38;;;;;;;24.00;6.50;;;;;;;12.85;75.69;100303.25;112401;1206;22465;-59
2021/09/11 05:39:06;;;;;;;17.70;6.10;;;;;;;12.90;75.52;100302.59;112486;1205;22605;-59
2021/09/11 05:41:35;;;;;;;21.10;6.20;;;;;;;12.96;75.49;100303.83;112463;1203;23746;-60
2021/09/11 05:44:05;;;;;;;19.50;6.20;;;;;;;13.03;75.69;100305.03;112721;1205;25249;-58
2021/09/11 05:46:33;;;;;;;13.50;6.00;;;;;;;13.09;75.60;100307.15;112722;1203;22446;-60
2021/09/11 05:49:02;;;;;;;17.70;6.40;;;;;;;13.15;75.47;100306.04;112569;1204;23652;-58
2021/09/11 05:51:31;;;;;;;18.70;6.10;;;;;;;13.22;75.45;100301.92;112641;1203;22561;-58
2021/09/11 05:53:59;;;;;;;14.90;5.60;;;;;;;13.29;75.44;100295.26;112592;1203;25091;-61
2021/09/11 05:56:28;;;;;;;13.80;5.00;;;;;;;13.35;75.27;100292.77;112414;1204;22437;-59
2021/09/11 05:58:56;;;;;;;16.50;5.60;;;;;;;13.42;75.18;100294.60;112420;1204;22487;-59
2021/09/11 06:01:27;;;;;;;13.90;4.40;;;;;;;13.49;75.28;100292.73;112524;1205;24792;-61
2021/09/11 06:03:55;;;;;;;18.00;6.20;;;;;;;13.57;75.14;100295.94;112476;1203;22548;-60
2021/09/11 06:06:23;;;;;;;14.60;4.90;;;;;;;13.63;75.09;100297.21;112378;1203;22596;-58
2021/09/11 06:08:53;;;;;;;14.70;4.80;;;;;;;13.71;75.16;100301.40;112566;1203;25220;-57
2021/09/11 06:14:37;;;;;;;18.30;4.70;;;;;;;13.88;75.27;100305.30;112458;1206;24082;-60
2021/09/11 06:17:07;;;;;;;15.30;4.50;;;;;;;13.95;75.21;100304.62;112450;1204;22459;-59
2021/09/11 06:19:36;;;;;;;13.60;4.40;;;;;;;14.01;75.06;100306.52;112597;1206;24079;-59
2021/09/11 06:22:08;;;;;;;12.80;4.70;;;;;;;14.08;75.06;100304.50;112582;1205;22760;-56
2021/09/11 06:24:37;;;;;;;11.80;4.30;;;;;;;14.16;75.18;100305.56;112340;1207;23473;-59
2021/09/11 06:27:07;;;;;;;24.00;5.90;;;;;;;14.24;75.08;100307.20;112331;1205;22734;-60
2021/09/11 06:29:37;;;;;;;17.30;4.80;;;;;;;14.32;75.19;100309.42;112265;1205;22466;-60
2021/09/11 06:32:07;;;;;;;14.70;4.60;;;;;;;14.40;74.90;100308.13;112223;1205;25091;-61
2021/09/11 06:34:37;;;;;;;18.30;5.40;;;;;;;14.47;74.94;100304.88;112419;1206;22468;-57
2021/09/11 06:37:06;;;;;;;12.20;4.40;;;;;;;14.56;74.97;100307.16;112396;1207;24069;-58
2021/09/11 06:39:34;;;;;;;13.40;4.90;;;;;;;14.64;74.86;100309.34;112348;1203;22558;-61
2021/09/11 06:42:02;;;;;;;15.60;4.80;;;;;;;14.72;74.68;100308.86;112290;1208;22415;-60
2021/09/11 06:44:31;;;;;;;18.60;4.20;;;;;;;14.80;74.44;100310.56;112355;1203;22444;-59
2021/09/11 06:47:09;;;;;;;15.60;4.40;;;;;;;14.88;74.41;100315.30;112543;1204;22482;-58
2021/09/11 06:49:38;;;;;;;17.60;4.10;;;;;;;15.00;74.53;100314.40;112370;1206;22445;-56
2021/09/11 06:52:07;;;;;;;17.60;4.60;;;;;;;15.10;74.25;100312.16;112438;1203;22415;-59
2021/09/11 06:54:36;;;;;;;15.80;4.70;;;;;;;15.19;74.36;100314.55;112441;1206;22653;-58
2021/09/11 06:57:05;;;;;;;13.20;3.20;;;;;;;15.29;74.32;100310.72;113207;1204;22456;-62
2021/09/11 06:59:37;;;;;;;14.20;3.70;;;;;;;15.42;74.15;100310.95;113512;1203;22546;-61
2021/09/11 07:02:06;;;;;;;19.30;4.20;;;;;;;15.56;73.84;100310.36;112450;1204;22511;-60
2021/09/11 07:04:36;;;;;;;13.90;3.40;;;;;;;15.67;73.52;100313.42;112291;1205;22476;-65
2021/09/11 07:07:07;;;;;;;12.60;3.20;;;;;;;15.77;73.18;100316.42;112183;1205;22451;-61
2021/09/11 07:09:35;;;;;;;14.60;3.20;;;;;;;15.90;73.09;100315.59;112379;1204;25218;-60
2021/09/11 07:12:04;;;;;;;13.70;3.20;;;;;;;16.05;72.91;100316.14;112398;1196;25301;-61
2021/09/11 07:14:33;;;;;;;13.00;2.90;;;;;;;16.18;72.61;100316.20;112199;1207;25423;-61
2021/09/11 07:17:02;;;;;;;13.30;2.60;;;;;;;16.33;72.45;100315.35;111747;1205;25186;-60
2021/09/11 07:19:31;;;;;;;10.80;2.20;;;;;;;16.46;72.17;100313.41;111792;1204;22441;-60
2021/09/11 07:21:59;;;;;;;11.00;2.70;;;;;;;16.62;71.98;100313.63;111901;1204;24248;-61
2021/09/11 07:24:28;;;;;;;11.10;2.90;;;;;;;16.73;71.70;100312.65;111666;1204;22549;-61
2021/09/11 07:26:56;;;;;;;15.60;2.70;;;;;;;16.85;71.44;100313.92;111653;1204;23795;-60
2021/09/11 07:29:24;;;;;;;14.90;2.20;;;;;;;16.97;71.12;100313.45;111899;1204;22467;-61
2021/09/11 07:31:53;;;;;;;11.80;2.80;;;;;;;17.11;71.00;100315.87;111722;1204;24114;-61
2021/09/11 07:34:21;;;;;;;9.90;2.10;;;;;;;17.26;70.39;100318.17;111817;1203;22454;-58
2021/09/11 07:36:50;;;;;;;8.70;2.20;;;;;;;17.40;70.14;100321.77;112047;1203;25150;-61
2021/09/11 07:39:18;;;;;;;12.80;2.60;;;;;;;17.50;69.93;100319.16;112027;1204;24058;-62
2021/09/11 07:41:46;;;;;;;10.10;2.60;;;;;;;17.64;69.66;100319.27;111966;1203;22922;-63
2021/09/11 07:44:15;;;;;;;10.80;2.20;;;;;;;17.77;69.24;100320.27;112276;1203;22449;-59
2021/09/11 07:46:43;;;;;;;12.90;2.50;;;;;;;17.89;68.82;100323.35;112622;1203;22475;-64
2021/09/11 07:49:11;;;;;;;9.70;2.00;;;;;;;18.04;68.53;100326.80;111580;1203;22444;-60
2021/09/11 07:51:40;;;;;;;9.80;2.20;;;;;;;18.16;67.95;100328.58;111671;1203;22440;-62
2021/09/11 07:54:08;;;;;;;9.60;2.00;;;;;;;18.28;67.72;100331.98;111790;1204;25204;-60
2021/09/11 07:56:36;;;;;;;8.90;1.80;;;;;;;18.38;67.53;100334.55;111671;1203;22402;-60
2021/09/11 07:59:05;;;;;;;12.40;2.70;;;;;;;18.52;67.23;100337.40;111536;1203;24189;-59
2021/09/11 08:01:33;;;;;;;8.80;1.80;;;;;;;18.66;66.81;100337.48;111712;1203;25153;-61
2021/09/11 08:04:02;;;;;;;11.30;2.70;;;;;;;18.75;66.61;100336.65;111792;1203;25144;-60
2021/09/11 08:06:30;;;;;;;10.60;1.90;;;;;;;18.85;66.51;100337.96;111614;1204;24087;-60
2021/09/11 08:08:59;;;;;;;9.50;2.40;;;;;;;18.98;65.89;100338.77;111565;1203;22559;-60
2021/09/11 08:11:27;;;;;;;9.40;2.10;;;;;;;19.07;65.60;100335.29;111701;1204;24283;-59
2021/09/11 08:13:55;;;;;;;9.60;1.90;;;;;;;19.13;65.58;100335.21;111524;1203;25601;-58
2021/09/11 08:16:24;;;;;;;16.30;2.10;;;;;;;19.21;65.23;100338.29;111501;1203;22436;-57
2021/09/11 08:18:52;;;;;;;10.50;2.30;;;;;;;19.28;64.84;100339.02;111568;1203;22451;-59
2021/09/11 08:21:21;;;;;;;7.50;1.60;;;;;;;19.35;64.54;100340.37;111841;1203;22452;-57
2021/09/11 08:23:49;;;;;;;8.40;2.40;;;;;;;19.43;64.20;100341.54;111760;1205;22484;-59
2021/09/11 08:26:18;;;;;;;9.60;1.90;;;;;;;19.50;64.20;100340.55;111766;1203;26430;-58
2021/09/11 08:28:48;;;;;;;11.50;2.20;;;;;;;19.56;63.92;100341.95;111665;1203;22546;-57
2021/09/11 08:31:15;;;;;;;;;;;;;;;19.61;63.73;100342.73;111833;1203;24068;-57
2021/09/11 08:33:44;;;;;;;9.50;1.70;;;;;;;19.70;63.90;100337.92;111606;1203;25061;-56
2021/09/11 08:36:13;;;;;;;10.60;1.80;;;;;;;19.77;63.23;100335.17;111575;1203;22445;-55
2021/09/11 08:38:41;;;;;;;13.80;1.90;;;;;;;19.83;63.22;100339.02;111719;1203;23360;-57
2021/09/11 08:41:11;;;;;;;13.30;1.80;;;;;;;19.91;62.85;100340.55;111791;1203;22529;-57
2021/09/11 08:43:41;;;;;;;6.30;1.70;;;;;;;19.96;63.19;100336.70;111718;1204;22450;-59
2021/09/11 08:46:10;;;;;;;12.00;1.60;;;;;;;20.04;62.92;100339.17;111664;1203;23974;-58
2021/09/11 08:48:39;;;;;;;9.30;2.00;;;;;;;20.12;62.21;100346.19;111789;1203;22447;-58
2021/09/11 08:51:07;;;;;;;9.90;1.50;;;;;;;20.20;61.45;100346.98;111593;1203;24069;-59
2021/09/11 08:53:37;;;;;;;9.10;1.80;;;;;;;20.25;60.98;100349.14;111624;1203;22459;-59
2021/09/11 08:56:07;;;;;;;8.40;1.80;;;;;;;20.30;60.75;100345.05;111527;1203;23926;-58
2021/09/11 08:58:35;;;;;;;11.10;1.80;;;;;;;20.38;61.17;100348.83;111627;1203;22463;-58
2021/09/11 09:01:03;;;;;;;13.90;2.10;;;;;;;20.47;60.41;100347.38;111542;1203;24069;-58
2021/09/11 09:03:37;;;;;;;9.10;1.70;;;;;;;20.54;60.61;100348.61;111520;1203;24141;-58
2021/09/11 09:06:19;;;;;;;6.50;2.00;;;;;;;20.61;60.37;100352.80;111651;1203;24288;-56
2021/09/11 09:08:49;;;;;;;6.70;1.50;;;;;;;20.67;60.18;100352.02;111737;1203;22453;-58
2021/09/11 09:11:26;;;;;;;9.30;1.70;;;;;;;20.73;59.92;100349.27;111966;1203;22452;-59
2021/09/11 09:14:00;;;;;;;16.60;2.80;;;;;;;20.80;59.58;100358.14;112034;1203;22565;-58
2021/09/11 09:16:33;;;;;;;11.90;2.40;;;;;;;20.88;59.26;100358.74;111790;1203;25370;-58
2021/09/11 09:19:05;;;;;;;11.90;2.00;;;;;;;20.98;58.98;100356.05;111771;1203;22464;-59
2021/09/11 09:21:34;;;;;;;9.90;2.50;;;;;;;21.07;58.81;100355.79;111742;1203;23131;-57
2021/09/11 09:24:08;;;;;;;12.30;2.10;;;;;;;21.17;58.59;100354.34;111634;1203;25161;-58
2021/09/11 09:26:51;;;;;;;12.90;2.10;;;;;;;21.22;58.24;100352.52;111748;1203;22453;-58
2021/09/11 09:29:20;;;;;;;9.50;2.10;;;;;;;21.32;58.07;100354.66;111699;1203;25173;-58
2021/09/11 09:31:53;;;;;;;12.80;2.40;;;;;;;21.43;57.98;100356.87;111772;1203;25058;-58
2021/09/11 09:34:33;;;;;;;13.60;2.50;;;;;;;21.55;57.33;100357.30;111473;1203;25056;-57
2021/09/11 09:37:05;;;;;;;11.80;3.40;;;;;;;21.66;57.15;100354.15;111644;1203;22448;-58
2021/09/11 09:39:40;;;;;;;6.20;2.10;;;;;;;21.76;56.76;100350.20;111788;1203;22650;-58
2021/09/11 09:42:11;;;;;;;11.30;2.40;;;;;;;21.89;56.91;100348.02;111700;1203;22539;-59
2021/09/11 09:44:43;;;;;;;10.00;2.50;;;;;;;21.97;56.75;100346.98;111558;1206;22714;-58
2021/09/11 09:47:16;;;;;;;8.20;2.10;;;;;;;22.03;56.72;100352.41;111881;1203;22444;-59
2021/09/11 09:50:06;;;;;;;10.80;3.10;;;;;;;22.11;56.72;100350.29;111698;1203;25312;-59
2021/09/11 09:52:36;;;;;;;9.20;2.60;;;;;;;22.22;56.56;100346.16;111744;1203;22447;-59
2021/09/11 09:55:06;;;;;;;12.50;3.10;;;;;;;22.29;56.64;100344.02;112029;1203;25044;-58
2021/09/11 09:57:37;;;;;;;17.90;3.00;;;;;;;22.38;56.68;100340.40;111837;1203;24188;-57
2021/09/11 10:00:08;;;;;;;12.70;2.80;;;;;;;22.47;56.30;100335.83;111715;1203;22519;-59
2021/09/11 10:02:39;;;;;;;7.60;2.30;;;;;;;22.53;56.40;100328.20;112097;1203;22462;-59
2021/09/11 10:05:12;;;;;;;8.80;2.50;;;;;;;22.60;56.46;100333.02;112307;1203;22553;-58
2021/09/11 10:07:47;;;;;;;10.30;2.50;;;;;;;22.66;56.32;100333.09;111772;1203;25240;-61
2021/09/11 10:10:16;;;;;;;9.90;3.10;;;;;;;22.74;56.32;100334.11;111685;1203;25153;-60
2021/09/11 10:12:48;;;;;;;11.00;3.20;;;;;;;22.80;56.25;100336.27;111702;1203;22450;-62
2021/09/11 10:15:26;;;;;;;10.50;3.10;;;;;;;22.84;56.29;100334.98;111901;1203;24105;-60
2021/09/11 10:17:56;;;;;;;9.60;2.90;;;;;;;22.89;56.28;100331.79;111919;1203;22699;-61
2021/09/11 10:20:26;;;;;;;12.50;3.00;;;;;;;22.96;56.22;100330.02;111682;1203;22440;-61
2021/09/11 10:23:08;;;;;;;12.30;3.30;;;;;;;23.02;56.18;100329.79;111716;1203;22559;-61
2021/09/11 10:28:33;;;;;;;11.10;2.90;;;;;;;23.16;56.01;100333.06;111789;1203;25232;-59
2021/09/11 10:31:07;;;;;;;10.10;3.00;;;;;;;23.25;55.71;100337.15;111827;1203;25432;-58
2021/09/11 10:33:51;;;;;;;12.60;2.90;;;;;;;23.28;55.62;100331.97;111918;1203;24546;-59
2021/09/11 10:36:24;;;;;;;10.60;3.30;;;;;;;23.34;55.56;100335.48;111987;1203;24332;-58
2021/09/11 10:39:06;;;;;;;11.30;3.00;;;;;;;23.38;55.86;100329.99;112007;1203;25470;-59
2021/09/11 10:41:35;;;;;;;13.20;3.20;;;;;;;23.44;55.68;100329.27;111992;1203;22480;-58
2021/09/11 10:44:05;;;;;;;12.40;3.70;;;;;;;23.50;55.83;100327.52;111820;1203;22532;-60
2021/09/11 10:46:50;;;;;;;11.10;3.50;;;;;;;23.55;55.45;100327.45;112025;1203;22875;-61
2021/09/11 10:49:32;;;;;;;19.60;4.20;;;;;;;23.62;55.58;100324.27;111733;1203;25046;-61
2021/09/11 10:52:03;;;;;;;14.30;3.70;;;;;;;23.68;55.46;100326.20;111922;1203;22433;-60
2021/09/11 10:54:36;;;;;;;8.60;2.90;;;;;;;23.72;55.21;100326.30;111983;1203;24164;-58
2021/09/11 10:57:09;;;;;;;10.10;3.60;;;;;;;23.75;55.13;100323.41;112025;1203;22453;-62
2021/09/11 10:59:43;;;;;;;8.10;2.50;;;;;;;23.81;55.37;100322.30;111896;1196;25108;-59
2021/09/11 11:02:34;;;;;;;8.30;2.80;;;;;;;23.90;54.83;100320.63;111873;1203;22483;-60
2021/09/11 11:05:11;;;;;;;10.80;2.60;;;;;;;23.96;55.00;100319.68;111736;1203;22453;-60
2021/09/11 11:07:44;;;;;;;13.30;2.90;;;;;;;24.01;54.93;100319.98;111837;1203;25176;-62
2021/09/11 11:10:14;;;;;;;10.80;3.40;;;;;;;24.04;54.88;100321.86;111584;1203;25466;-62
2021/09/11 11:12:46;;;;;;;12.40;3.10;;;;;;;24.07;54.82;100321.30;111968;1203;22456;-62
2021/09/11 11:15:17;;;;;;;13.60;3.30;;;;;;;24.09;54.57;100321.65;111734;1203;22454;-62
2021/09/11 11:17:47;;;;;;;9.50;3.00;;;;;;;24.12;54.42;100315.45;111808;1203;22468;-61
2021/09/11 11:20:21;;;;;;;12.90;4.10;;;;;;;24.12;54.54;100314.04;111778;1203;24211;-61
2021/09/11 11:22:49;;;;;;;13.60;3.30;;;;;;;24.17;54.63;100312.79;112007;1203;22454;-62
2021/09/11 11:25:31;;;;;;;36.60;6.00;;;;;;;24.23;54.57;100310.18;111991;1203;22445;-61
2021/09/11 11:28:00;;;;;;;50.80;6.50;;;;;;;24.27;54.67;100300.44;111867;1203;23335;-61
2021/09/11 11:30:30;;;;;;;10.40;3.50;;;;;;;24.35;54.50;100296.20;111874;1203;25958;-61